Time;durP1;ratioP1;P1;durP2;ratioP2;P2;SDS_P1;SDS_P2;PMS_P1;PMS_P2;Temp;Humidity;BMP_temperature;BMP_pressure;BME280_temperature;BME280_humidity;BME280_pressure;Samples;Min_cycle;Max_cycle;Signal;HPM_P1;HPM_P2
2022/08/25 00:01:23;;;;;;;8.65;4.25;;;;;;;;;;10366982;28;20046;-73
2022/08/25 00:06:29;;;;;;;8.68;4.28;;;;;;;;;;10361190;28;20132;-72
2022/08/25 00:11:34;;;;;;;9.02;5.00;;;;;;;;;;10364192;28;20069;-72
2022/08/25 00:16:38;;;;;;;9.05;4.70;;;;;;;;;;10362443;28;20541;-72
2022/08/25 00:21:41;;;;;;;9.40;5.13;;;;;;;;;;10364608;28;20129;-71
2022/08/25 00:26:46;;;;;;;10.77;6.28;;;;;;;;;;10365955;28;20053;-71
2022/08/25 00:31:51;;;;;;;10.55;4.97;;;;;;;;;;10360451;28;20030;-73
2022/08/25 00:36:54;;;;;;;9.60;4.90;;;;;;;;;;10355562;28;20054;-72
2022/08/25 00:41:57;;;;;;;11.57;5.28;;;;;;;;;;10360440;28;20074;-73
2022/08/25 00:47:02;;;;;;;13.30;5.32;;;;;;;;;;10344757;28;20436;-73
2022/08/25 00:52:07;;;;;;;10.60;5.03;;;;;;;;;;10359570;28;20042;-71
2022/08/25 00:57:11;;;;;;;15.00;6.50;;;;;;;;;;10358003;28;20068;-72
2022/08/25 01:02:15;;;;;;;13.88;6.55;;;;;;;;;;10363617;28;20060;-73
2022/08/25 01:07:21;;;;;;;12.60;5.70;;;;;;;;;;10360307;28;20062;-73
2022/08/25 01:12:24;;;;;;;14.80;6.28;;;;;;;;;;10360063;28;20106;-72
2022/08/25 01:17:32;;;;;;;16.17;5.80;;;;;;;;;;10366282;28;20133;-71
2022/08/25 01:22:37;;;;;;;10.88;5.68;;;;;;;;;;10364135;28;20100;-71
2022/08/25 01:27:40;;;;;;;12.88;6.20;;;;;;;;;;10364373;28;20125;-72
2022/08/25 01:32:43;;;;;;;14.70;6.53;;;;;;;;;;10355504;28;20598;-71
2022/08/25 01:37:47;;;;;;;13.70;6.47;;;;;;;;;;10361728;28;20137;-71
2022/08/25 01:42:53;;;;;;;14.15;6.22;;;;;;;;;;10357788;28;20048;-72
2022/08/25 01:47:56;;;;;;;13.07;6.30;;;;;;;;;;10360838;28;20046;-73
2022/08/25 01:53:04;;;;;;;16.40;6.87;;;;;;;;;;10347721;28;20038;-71
2022/08/25 01:58:06;;;;;;;16.63;7.28;;;;;;;;;;10360108;28;20336;-72
2022/08/25 02:03:09;;;;;;;17.27;6.87;;;;;;;;;;10372533;28;20080;-73
2022/08/25 02:08:22;;;;;;;14.45;6.85;;;;;;;;;;10363822;28;20049;-74
2022/08/25 02:13:25;;;;;;;14.30;6.40;;;;;;;;;;10360104;28;20130;-72
2022/08/25 02:18:32;;;;;;;12.05;5.72;;;;;;;;;;10365113;28;20125;-72
2022/08/25 02:23:37;;;;;;;12.47;6.27;;;;;;;;;;10360499;28;20042;-72
2022/08/25 02:28:39;;;;;;;13.93;6.10;;;;;;;;;;10365441;28;20160;-71
2022/08/25 02:33:42;;;;;;;14.67;6.13;;;;;;;;;;10367064;28;20049;-72
2022/08/25 02:38:47;;;;;;;12.53;5.43;;;;;;;;;;10368072;28;20132;-71
2022/08/25 02:43:50;;;;;;;11.85;5.50;;;;;;;;;;10367692;28;20480;-72
2022/08/25 02:48:54;;;;;;;15.07;6.10;;;;;;;;;;10364187;28;20133;-72
2022/08/25 02:54:00;;;;;;;14.88;6.65;;;;;;;;;;10367333;28;20037;-72
2022/08/25 02:59:03;;;;;;;16.33;6.50;;;;;;;;;;10373589;28;20030;-72
2022/08/25 03:04:06;;;;;;;17.40;6.97;;;;;;;;;;10365194;28;20035;-73
2022/08/25 03:09:11;;;;;;;14.70;6.40;;;;;;;;;;10362544;28;20388;-71
2022/08/25 03:14:15;;;;;;;14.98;6.57;;;;;;;;;;10365396;28;20034;-71
2022/08/25 03:19:18;;;;;;;15.32;6.40;;;;;;;;;;10372461;28;20450;-71
2022/08/25 03:24:22;;;;;;;16.57;6.93;;;;;;;;;;10345441;28;20044;-72
2022/08/25 03:29:32;;;;;;;14.18;6.82;;;;;;;;;;10367861;28;20096;-71
2022/08/25 03:34:35;;;;;;;14.60;6.70;;;;;;;;;;10367549;28;20092;-72
2022/08/25 03:39:39;;;;;;;14.87;7.30;;;;;;;;;;10338726;28;20049;-73
2022/08/25 03:44:42;;;;;;;15.80;6.30;;;;;;;;;;10361524;28;20065;-71
2022/08/25 03:49:44;;;;;;;18.92;7.65;;;;;;;;;;10371246;28;20054;-71
2022/08/25 03:54:49;;;;;;;16.23;6.97;;;;;;;;;;10361417;28;20125;-71
2022/08/25 03:59:52;;;;;;;13.45;6.72;;;;;;;;;;10362423;28;20045;-73
2022/08/25 04:04:54;;;;;;;18.48;7.93;;;;;;;;;;10364612;28;20042;-72
2022/08/25 04:09:59;;;;;;;14.77;6.80;;;;;;;;;;10357726;28;20053;-72
2022/08/25 04:15:02;;;;;;;16.13;6.93;;;;;;;;;;10364746;28;20129;-71
2022/08/25 04:20:06;;;;;;;15.47;7.53;;;;;;;;;;10360379;28;20574;-71
2022/08/25 04:25:12;;;;;;;16.50;7.15;;;;;;;;;;10359960;28;20034;-72
2022/08/25 04:30:15;;;;;;;17.13;7.50;;;;;;;;;;10356114;28;20049;-72
2022/08/25 04:35:18;;;;;;;18.05;7.53;;;;;;;;;;10366808;28;20038;-71
2022/08/25 04:40:22;;;;;;;18.85;7.40;;;;;;;;;;10362090;28;20061;-71
2022/08/25 04:45:30;;;;;;;22.77;7.30;;;;;;;;;;10363299;28;20302;-71
2022/08/25 04:50:33;;;;;;;20.17;7.80;;;;;;;;;;10362054;28;20415;-71
2022/08/25 04:55:41;;;;;;;18.60;8.40;;;;;;;;;;10361522;28;20120;-71
2022/08/25 05:00:45;;;;;;;20.52;7.53;;;;;;;;;;10362017;28;20080;-72
2022/08/25 05:05:48;;;;;;;18.20;7.50;;;;;;;;;;10340103;28;20043;-72
2022/08/25 05:10:53;;;;;;;17.10;8.13;;;;;;;;;;10360765;28;20487;-72
2022/08/25 05:15:58;;;;;;;18.20;8.13;;;;;;;;;;10345471;28;20041;-71
2022/08/25 05:21:02;;;;;;;20.40;7.18;;;;;;;;;;10349119;28;20712;-73
2022/08/25 05:26:08;;;;;;;17.88;8.30;;;;;;;;;;10348843;28;20052;-72
2022/08/25 05:31:14;;;;;;;15.70;7.28;;;;;;;;;;10357673;28;20061;-73
2022/08/25 05:36:18;;;;;;;19.73;8.85;;;;;;;;;;10363516;28;20046;-72
2022/08/25 05:41:26;;;;;;;18.27;7.50;;;;;;;;;;10360561;28;20100;-74
2022/08/25 05:46:29;;;;;;;17.05;7.43;;;;;;;;;;10364925;28;20125;-72
2022/08/25 05:51:43;;;;;;;20.98;8.50;;;;;;;;;;10361877;28;20050;-74
2022/08/25 05:56:47;;;;;;;17.33;8.10;;;;;;;;;;10360235;28;20073;-73
2022/08/25 06:07:26;;;;;;;17.25;7.47;;;;;;;;;;10373131;28;20450;-72
2022/08/25 06:12:34;;;;;;;17.83;8.05;;;;;;;;;;10359349;28;20041;-73
2022/08/25 06:17:48;;;;;;;17.50;7.82;;;;;;;;;;10346475;28;20172;-73
2022/08/25 06:23:00;;;;;;;17.65;7.82;;;;;;;;;;10349916;28;20074;-74
2022/08/25 06:28:05;;;;;;;17.58;8.07;;;;;;;;;;10352160;28;20063;-73
2022/08/25 06:33:08;;;;;;;15.15;6.72;;;;;;;;;;10363764;28;20045;-73
2022/08/25 06:38:13;;;;;;;16.77;8.25;;;;;;;;;;10363036;28;20045;-72
2022/08/25 06:43:20;;;;;;;15.02;7.88;;;;;;;;;;10355604;28;20042;-73
2022/08/25 06:48:33;;;;;;;17.45;7.95;;;;;;;;;;10351516;28;20065;-73
2022/08/25 06:53:36;;;;;;;17.33;8.32;;;;;;;;;;10343739;28;20038;-73
2022/08/25 06:58:44;;;;;;;16.58;8.45;;;;;;;;;;10359269;28;20096;-73
2022/08/25 07:03:47;;;;;;;12.73;6.15;;;;;;;;;;10355708;28;23486;-74
2022/08/25 07:08:58;;;;;;;12.27;6.15;;;;;;;;;;10353474;28;20042;-73
2022/08/25 07:14:11;;;;;;;13.13;7.10;;;;;;;;;;10358849;28;20592;-73
2022/08/25 07:19:24;;;;;;;14.25;6.40;;;;;;;;;;10353518;28;20056;-73
2022/08/25 07:24:27;;;;;;;10.32;6.30;;;;;;;;;;10354415;28;20054;-73
2022/08/25 07:29:37;;;;;;;15.38;7.32;;;;;;;;;;10343773;28;20054;-74
2022/08/25 07:40:13;;;;;;;10.90;6.13;;;;;;;;;;10334061;28;20050;-73
2022/08/25 07:45:18;;;;;;;9.35;6.50;;;;;;;;;;10358306;28;20296;-73
2022/08/25 07:50:23;;;;;;;11.63;6.22;;;;;;;;;;10347230;28;20130;-73
2022/08/25 07:55:27;;;;;;;9.43;6.57;;;;;;;;;;10359780;28;20049;-74
2022/08/25 08:00:32;;;;;;;9.90;6.68;;;;;;;;;;10358470;28;20110;-75
2022/08/25 08:05:40;;;;;;;9.55;6.80;;;;;;;;;;10354725;28;20030;-74
2022/08/25 08:10:43;;;;;;;8.40;6.45;;;;;;;;;;10348823;28;20127;-74
2022/08/25 08:16:09;;;;;;;9.00;6.28;;;;;;;;;;10352620;28;20066;-74
2022/08/25 08:21:16;;;;;;;8.70;6.77;;;;;;;;;;10353334;28;20065;-74
2022/08/25 08:26:22;;;;;;;10.95;6.70;;;;;;;;;;10358109;28;20477;-73
2022/08/25 08:31:44;;;;;;;8.00;5.70;;;;;;;;;;10354896;28;20046;-74
2022/08/25 08:36:54;;;;;;;10.00;5.97;;;;;;;;;;10354575;28;20044;-74
2022/08/25 08:42:21;;;;;;;6.63;5.53;;;;;;;;;;10353635;28;20046;-74
2022/08/25 08:47:29;;;;;;;8.02;6.43;;;;;;;;;;10354624;28;20046;-74
2022/08/25 08:52:36;;;;;;;6.60;5.57;;;;;;;;;;10338498;28;20108;-74
2022/08/25 08:57:43;;;;;;;7.15;5.82;;;;;;;;;;10355705;28;20065;-74
2022/08/25 09:02:50;;;;;;;8.57;6.47;;;;;;;;;;10353760;28;20065;-73
2022/08/25 09:07:55;;;;;;;8.30;6.72;;;;;;;;;;10355472;28;20066;-72
2022/08/25 09:13:02;;;;;;;7.35;6.03;;;;;;;;;;10358259;28;20034;-74
2022/08/25 09:18:17;;;;;;;6.88;6.07;;;;;;;;;;10354282;28;20085;-75
2022/08/25 09:23:30;;;;;;;7.75;5.93;;;;;;;;;;10355902;28;20034;-74
2022/08/25 09:28:37;;;;;;;8.05;7.25;;;;;;;;;;10353700;28;20125;-74
2022/08/25 09:33:41;;;;;;;7.72;6.22;;;;;;;;;;10351254;28;20121;-72
2022/08/25 09:38:45;;;;;;;6.85;5.10;;;;;;;;;;10356115;28;20061;-74
2022/08/25 09:43:52;;;;;;;7.47;6.22;;;;;;;;;;10355034;28;20072;-73
2022/08/25 09:48:55;;;;;;;;;;;;;;;;;;10355887;28;20062;-74
2022/08/25 09:54:02;;;;;;;6.53;5.50;;;;;;;;;;10358818;28;20040;-74
2022/08/25 09:59:20;;;;;;;8.93;5.70;;;;;;;;;;10356957;28;20045;-74
2022/08/25 10:04:46;;;;;;;8.07;5.25;;;;;;;;;;10351587;28;20060;-73
2022/08/25 10:09:53;;;;;;;6.32;5.57;;;;;;;;;;10346773;28;20044;-74
2022/08/25 10:14:56;;;;;;;7.35;5.35;;;;;;;;;;10351243;28;20060;-74
2022/08/25 10:20:14;;;;;;;6.55;5.43;;;;;;;;;;10353784;28;20125;-74
2022/08/25 10:25:20;;;;;;;10.32;5.85;;;;;;;;;;10328792;28;20499;-72
2022/08/25 10:30:28;;;;;;;5.38;4.88;;;;;;;;;;10346251;28;20047;-74
2022/08/25 10:35:34;;;;;;;5.97;5.47;;;;;;;;;;10357323;28;20058;-73
2022/08/25 10:40:43;;;;;;;8.30;5.00;;;;;;;;;;10359369;28;20053;-73
2022/08/25 10:45:49;;;;;;;6.20;4.65;;;;;;;;;;10371114;28;20042;-74
2022/08/25 10:50:56;;;;;;;6.40;5.45;;;;;;;;;;10358318;28;20038;-74
2022/08/25 10:56:03;;;;;;;8.65;5.13;;;;;;;;;;10372142;28;20272;-73
2022/08/25 11:01:12;;;;;;;6.28;4.78;;;;;;;;;;10362171;28;20076;-73
2022/08/25 11:06:18;;;;;;;7.35;5.47;;;;;;;;;;10362593;28;20252;-72
2022/08/25 11:11:28;;;;;;;8.55;6.00;;;;;;;;;;10362191;28;20127;-73
2022/08/25 11:16:31;;;;;;;;;;;;;;;;;;10350915;28;20376;-74
2022/08/25 11:21:42;;;;;;;8.75;5.60;;;;;;;;;;10361728;28;19961;-74
2022/08/25 11:26:50;;;;;;;8.68;5.82;;;;;;;;;;10361883;28;20104;-74
2022/08/25 11:31:53;;;;;;;9.30;6.18;;;;;;;;;;10353782;28;20499;-74
2022/08/25 11:36:59;;;;;;;7.95;5.88;;;;;;;;;;10357762;28;20042;-74
2022/08/25 11:42:25;;;;;;;7.35;5.75;;;;;;;;;;10359847;28;20042;-74
2022/08/25 11:47:39;;;;;;;7.65;6.00;;;;;;;;;;10353236;28;20041;-74
2022/08/25 11:52:45;;;;;;;8.45;6.18;;;;;;;;;;10348782;28;20553;-73
2022/08/25 11:57:51;;;;;;;9.73;5.80;;;;;;;;;;10355686;28;20121;-74
2022/08/25 12:03:24;;;;;;;7.38;5.47;;;;;;;;;;10348046;28;20127;-74
2022/08/25 12:08:46;;;;;;;7.15;5.03;;;;;;;;;;10331569;28;20596;-74
2022/08/25 12:13:51;;;;;;;9.52;5.57;;;;;;;;;;10351267;28;20049;-74
2022/08/25 12:19:15;;;;;;;9.32;5.30;;;;;;;;;;10349085;28;20041;-73
2022/08/25 12:24:20;;;;;;;14.52;7.53;;;;;;;;;;10348541;28;20054;-73
2022/08/25 12:29:30;;;;;;;10.43;5.50;;;;;;;;;;10353993;28;20151;-73
2022/08/25 12:34:35;;;;;;;;;;;;;;;;;;10351194;28;20088;-73
2022/08/25 12:39:43;;;;;;;11.35;5.50;;;;;;;;;;10354911;28;19928;-74
2022/08/25 12:44:47;;;;;;;11.30;5.65;;;;;;;;;;10345643;28;20070;-73
2022/08/25 12:49:51;;;;;;;13.50;6.22;;;;;;;;;;10356770;28;20125;-73
2022/08/25 12:54:58;;;;;;;9.70;6.32;;;;;;;;;;10357323;28;20055;-73
2022/08/25 13:00:06;;;;;;;16.73;6.50;;;;;;;;;;10342336;28;20129;-73
2022/08/25 13:05:21;;;;;;;13.35;6.70;;;;;;;;;;10357154;28;20630;-74
2022/08/25 13:10:27;;;;;;;10.45;6.10;;;;;;;;;;10359423;28;20038;-73
2022/08/25 13:15:36;;;;;;;13.00;6.63;;;;;;;;;;10353147;28;20046;-74
2022/08/25 13:20:39;;;;;;;15.93;6.70;;;;;;;;;;10357637;28;20120;-73
2022/08/25 13:25:47;;;;;;;14.80;6.28;;;;;;;;;;10355846;28;20129;-74
2022/08/25 13:30:57;;;;;;;13.55;6.15;;;;;;;;;;10352414;28;20647;-73
2022/08/25 13:41:24;;;;;;;17.20;7.00;;;;;;;;;;10334380;28;20054;-74
2022/08/25 13:46:32;;;;;;;15.00;6.68;;;;;;;;;;10351644;28;20137;-73
2022/08/25 13:51:50;;;;;;;16.27;6.57;;;;;;;;;;10356227;28;20038;-73
2022/08/25 13:57:04;;;;;;;13.45;6.50;;;;;;;;;;10356598;28;20045;-73
2022/08/25 14:02:13;;;;;;;14.35;6.57;;;;;;;;;;10343671;28;20136;-73
2022/08/25 14:07:28;;;;;;;9.48;5.65;;;;;;;;;;10362720;28;20054;-73
2022/08/25 14:12:43;;;;;;;17.45;5.93;;;;;;;;;;10361870;28;20050;-73
2022/08/25 14:17:49;;;;;;;15.20;6.47;;;;;;;;;;10359862;28;20038;-73
2022/08/25 14:22:54;;;;;;;21.70;7.10;;;;;;;;;;10351517;28;20049;-73
2022/08/25 14:28:02;;;;;;;16.00;6.53;;;;;;;;;;10357042;28;20041;-74
2022/08/25 14:33:11;;;;;;;13.10;6.45;;;;;;;;;;10354496;28;20045;-74
2022/08/25 14:38:14;;;;;;;13.70;6.68;;;;;;;;;;10349263;28;20044;-74
2022/08/25 14:43:21;;;;;;;16.25;7.10;;;;;;;;;;10352165;28;20128;-74
2022/08/25 14:48:45;;;;;;;15.02;6.78;;;;;;;;;;10355111;28;20038;-74
2022/08/25 14:54:01;;;;;;;12.40;6.00;;;;;;;;;;10340948;28;20113;-75
2022/08/25 14:59:04;;;;;;;16.10;6.28;;;;;;;;;;10355695;28;20056;-74
2022/08/25 15:04:15;;;;;;;13.65;6.50;;;;;;;;;;10351259;28;20046;-74
2022/08/25 15:09:21;;;;;;;18.73;6.72;;;;;;;;;;10344612;28;20034;-74
2022/08/25 15:14:25;;;;;;;18.65;6.05;;;;;;;;;;10348115;28;20049;-74
2022/08/25 15:19:35;;;;;;;21.05;6.07;;;;;;;;;;10344569;28;20041;-74
2022/08/25 15:24:40;;;;;;;14.68;6.28;;;;;;;;;;10358780;28;21584;-74
2022/08/25 15:29:43;;;;;;;12.93;6.13;;;;;;;;;;10351405;28;20120;-74
2022/08/25 15:34:46;;;;;;;19.40;6.72;;;;;;;;;;10362060;28;20052;-73
2022/08/25 15:39:51;;;;;;;21.25;8.23;;;;;;;;;;10350428;28;20030;-73
2022/08/25 15:45:05;;;;;;;13.68;6.10;;;;;;;;;;10351272;28;20038;-74
2022/08/25 15:50:13;;;;;;;21.67;7.15;;;;;;;;;;10355848;28;20052;-73
2022/08/25 15:55:17;;;;;;;20.85;6.40;;;;;;;;;;10357403;28;20137;-73
2022/08/25 16:00:31;;;;;;;14.82;5.78;;;;;;;;;;10356737;28;20048;-74
2022/08/25 16:05:37;;;;;;;14.95;5.93;;;;;;;;;;10356021;28;20135;-76
2022/08/25 16:10:45;;;;;;;17.15;6.35;;;;;;;;;;10358404;28;20042;-74
2022/08/25 16:15:54;;;;;;;21.33;6.70;;;;;;;;;;10351776;28;20046;-74
2022/08/25 16:20:58;;;;;;;17.85;6.72;;;;;;;;;;10346095;28;20041;-74
2022/08/25 16:26:06;;;;;;;18.60;6.03;;;;;;;;;;10349462;28;20038;-75
2022/08/25 16:31:09;;;;;;;17.35;5.90;;;;;;;;;;10350467;28;20054;-74
2022/08/25 16:36:14;;;;;;;18.83;5.80;;;;;;;;;;10334716;28;20085;-73
2022/08/25 16:41:19;;;;;;;14.68;6.38;;;;;;;;;;10352382;28;20046;-74
2022/08/25 16:46:23;;;;;;;20.95;6.40;;;;;;;;;;10333623;28;20034;-73
2022/08/25 16:51:36;;;;;;;19.90;7.60;;;;;;;;;;10350708;28;20053;-73
2022/08/25 16:56:51;;;;;;;16.40;6.03;;;;;;;;;;10354619;28;20076;-75
2022/08/25 17:01:57;;;;;;;19.75;5.90;;;;;;;;;;10347334;28;20041;-73
2022/08/25 17:07:05;;;;;;;17.13;5.70;;;;;;;;;;10345363;28;20058;-73
2022/08/25 17:12:11;;;;;;;16.20;5.85;;;;;;;;;;10344157;28;20104;-74
2022/08/25 17:17:14;;;;;;;17.92;5.68;;;;;;;;;;10348970;28;20523;-74
2022/08/25 17:22:21;;;;;;;13.45;5.90;;;;;;;;;;10353566;28;20049;-73
2022/08/25 17:27:26;;;;;;;14.95;6.07;;;;;;;;;;10359123;28;20053;-72
2022/08/25 17:32:31;;;;;;;16.70;6.20;;;;;;;;;;10351185;28;20050;-73
2022/08/25 17:37:34;;;;;;;14.82;5.78;;;;;;;;;;10353861;28;20548;-73
2022/08/25 17:42:57;;;;;;;20.35;5.80;;;;;;;;;;10354101;28;20093;-73
2022/08/25 17:48:18;;;;;;;;;;;;;;;;;;10348961;28;20574;-73
2022/08/25 17:53:24;;;;;;;19.90;6.55;;;;;;;;;;10352553;28;20028;-73
2022/08/25 17:58:29;;;;;;;18.55;6.57;;;;;;;;;;10348410;28;20041;-72
2022/08/25 18:03:32;;;;;;;19.38;6.40;;;;;;;;;;10353101;28;20100;-73
2022/08/25 18:08:42;;;;;;;21.10;6.32;;;;;;;;;;10355254;28;20533;-73
2022/08/25 18:13:47;;;;;;;17.75;6.32;;;;;;;;;;10350360;28;20478;-73
2022/08/25 18:18:53;;;;;;;19.70;6.75;;;;;;;;;;10350146;28;20105;-73
2022/08/25 18:23:56;;;;;;;15.20;7.05;;;;;;;;;;10354466;28;20603;-74
2022/08/25 18:29:00;;;;;;;15.43;6.18;;;;;;;;;;10358904;28;20034;-72
2022/08/25 18:34:03;;;;;;;13.25;6.30;;;;;;;;;;10354176;28;20065;-73
2022/08/25 18:44:28;;;;;;;19.40;6.38;;;;;;;;;;10334457;28;20150;-73
2022/08/25 18:49:31;;;;;;;17.17;6.45;;;;;;;;;;10347497;28;20034;-74
2022/08/25 18:54:35;;;;;;;14.10;6.80;;;;;;;;;;10350336;28;20053;-73
2022/08/25 18:59:47;;;;;;;21.92;7.60;;;;;;;;;;10350378;28;20440;-73
2022/08/25 19:04:51;;;;;;;20.50;7.00;;;;;;;;;;10355227;28;20056;-72
2022/08/25 19:09:54;;;;;;;16.15;6.93;;;;;;;;;;10334068;28;20060;-73
2022/08/25 19:15:06;;;;;;;20.10;7.15;;;;;;;;;;10344363;28;20041;-74
2022/08/25 19:20:10;;;;;;;14.55;6.85;;;;;;;;;;10334611;28;20394;-73
2022/08/25 19:25:14;;;;;;;18.13;7.22;;;;;;;;;;10347514;28;20061;-73
2022/08/25 19:30:20;;;;;;;15.20;7.00;;;;;;;;;;10357097;28;20045;-72
2022/08/25 19:35:26;;;;;;;13.50;6.65;;;;;;;;;;10350953;28;20100;-73
2022/08/25 19:40:34;;;;;;;17.02;6.85;;;;;;;;;;10353013;28;20100;-72
2022/08/25 19:45:39;;;;;;;17.25;7.43;;;;;;;;;;10348405;28;20040;-73
2022/08/25 19:50:48;;;;;;;12.95;5.43;;;;;;;;;;10348365;28;20046;-75
2022/08/25 19:55:58;;;;;;;14.45;6.57;;;;;;;;;;10348496;28;20290;-76
2022/08/25 20:01:03;;;;;;;18.27;7.72;;;;;;;;;;10349438;28;20225;-75
2022/08/25 20:06:06;;;;;;;18.50;7.35;;;;;;;;;;10345066;28;20041;-76
2022/08/25 20:11:11;;;;;;;16.85;7.55;;;;;;;;;;10345123;28;20045;-75
2022/08/25 20:16:15;;;;;;;15.68;7.03;;;;;;;;;;10348215;28;20053;-72
2022/08/25 20:21:21;;;;;;;15.63;6.78;;;;;;;;;;10339630;28;20117;-73
2022/08/25 20:26:24;;;;;;;17.65;6.75;;;;;;;;;;10351169;28;20118;-74
2022/08/25 20:31:30;;;;;;;18.17;6.53;;;;;;;;;;10346374;28;20037;-72
2022/08/25 20:36:33;;;;;;;12.85;6.55;;;;;;;;;;10352513;28;20140;-72
2022/08/25 20:41:38;;;;;;;21.25;7.63;;;;;;;;;;10328726;28;20145;-72
2022/08/25 20:46:43;;;;;;;14.07;7.40;;;;;;;;;;10347721;28;20452;-73
2022/08/25 20:51:46;;;;;;;21.20;7.53;;;;;;;;;;10344384;28;20084;-74
2022/08/25 20:56:53;;;;;;;15.57;7.13;;;;;;;;;;10349407;28;20101;-72
2022/08/25 21:01:57;;;;;;;17.70;7.95;;;;;;;;;;10356072;28;20121;-72
2022/08/25 21:07:00;;;;;;;17.08;8.25;;;;;;;;;;10350208;28;20073;-72
2022/08/25 21:12:05;;;;;;;16.33;8.00;;;;;;;;;;10345840;28;20050;-72
2022/08/25 21:17:12;;;;;;;15.15;7.07;;;;;;;;;;10354521;28;20699;-72
2022/08/25 21:22:15;;;;;;;15.63;7.93;;;;;;;;;;10349413;28;20050;-73
2022/08/25 21:27:19;;;;;;;17.33;7.47;;;;;;;;;;10351932;28;20097;-72
2022/08/25 21:32:27;;;;;;;18.25;7.57;;;;;;;;;;10353048;28;20556;-72
2022/08/25 21:37:30;;;;;;;21.70;8.52;;;;;;;;;;10347962;28;20133;-71
2022/08/25 21:42:33;;;;;;;16.20;8.27;;;;;;;;;;10353698;28;20038;-72
2022/08/25 21:47:41;;;;;;;18.45;8.52;;;;;;;;;;10352197;28;20054;-72
2022/08/25 21:52:44;;;;;;;16.52;8.20;;;;;;;;;;10349940;28;20136;-74
2022/08/25 21:57:48;;;;;;;28.50;9.20;;;;;;;;;;10347864;28;20049;-71
2022/08/25 22:02:54;;;;;;;20.15;8.32;;;;;;;;;;10334011;28;20042;-71
2022/08/25 22:07:57;;;;;;;20.25;9.07;;;;;;;;;;10358452;28;20438;-72
2022/08/25 22:13:02;;;;;;;18.95;8.30;;;;;;;;;;10357299;28;20038;-72
2022/08/25 22:18:07;;;;;;;18.95;8.40;;;;;;;;;;10369626;28;20065;-73
2022/08/25 22:23:10;;;;;;;19.88;8.52;;;;;;;;;;10366132;28;20038;-72
2022/08/25 22:28:22;;;;;;;22.60;9.10;;;;;;;;;;10360737;28;20039;-73
2022/08/25 22:33:25;;;;;;;;;;;;;;;;;;10367240;28;20177;-73
2022/08/25 22:38:29;;;;;;;17.43;8.10;;;;;;;;;;10361679;28;20012;-71
2022/08/25 22:43:32;;;;;;;22.70;8.98;;;;;;;;;;10362779;28;20069;-72
2022/08/25 22:48:35;;;;;;;23.98;9.57;;;;;;;;;;10359765;28;20290;-73
2022/08/25 22:53:40;;;;;;;19.83;9.07;;;;;;;;;;10358951;28;20050;-72
2022/08/25 22:58:43;;;;;;;27.58;9.68;;;;;;;;;;10367419;28;20176;-72
2022/08/25 23:03:56;;;;;;;16.20;8.30;;;;;;;;;;10363321;28;20065;-72
2022/08/25 23:09:00;;;;;;;24.48;9.15;;;;;;;;;;10363769;28;20109;-72
2022/08/25 23:14:08;;;;;;;27.45;10.50;;;;;;;;;;10361747;28;20525;-72
2022/08/25 23:19:12;;;;;;;19.92;9.55;;;;;;;;;;10363588;28;20050;-72
2022/08/25 23:24:17;;;;;;;20.40;9.80;;;;;;;;;;10360516;28;20053;-72
2022/08/25 23:29:33;;;;;;;18.00;9.48;;;;;;;;;;10354582;28;20072;-72
2022/08/25 23:34:37;;;;;;;16.40;8.25;;;;;;;;;;10378265;28;20052;-73
2022/08/25 23:39:44;;;;;;;17.67;9.70;;;;;;;;;;10347515;28;20046;-74
2022/08/25 23:44:47;;;;;;;24.42;9.48;;;;;;;;;;10363656;28;20561;-73
2022/08/25 23:49:50;;;;;;;;;;;;;;;;;;10345799;28;20124;-75
2022/08/25 23:54:54;;;;;;;21.58;9.15;;;;;;;;;;10363284;28;20012;-72
2022/08/25 23:59:57;;;;;;;20.65;9.98;;;;;;;;;;10356149;28;20080;-74
